Time;durP1;ratioP1;P1;durP2;ratioP2;P2;SDS_P1;SDS_P2;PMS_P1;PMS_P2;Temp;Humidity;BMP_temperature;BMP_pressure;BME280_temperature;BME280_humidity;BME280_pressure;Samples;Min_cycle;Max_cycle;Signal;HPM_P1;HPM_P2
2023/04/09 00:01:09;;;;;;;65.63;31.85;;;;;;;3.62;100.00;102017.06;5074600;28;20047;-81
2023/04/09 00:03:37;;;;;;;58.47;28.60;;;;;;;3.67;100.00;102014.66;5057492;28;20401;-80
2023/04/09 00:06:05;;;;;;;65.03;31.02;;;;;;;3.72;100.00;102018.31;5074387;28;20044;-80
2023/04/09 00:08:31;;;;;;;64.38;29.50;;;;;;;3.74;100.00;102019.28;5074086;28;20115;-81
2023/04/09 00:10:59;;;;;;;51.80;26.63;;;;;;;3.77;100.00;102016.78;5074397;28;20033;-82
2023/04/09 00:13:26;;;;;;;67.97;26.50;;;;;;;3.79;100.00;102019.44;5090907;28;20036;-82
2023/04/09 00:15:52;;;;;;;68.80;28.85;;;;;;;3.81;100.00;102010.91;5073714;28;20040;-81
2023/04/09 00:18:20;;;;;;;58.88;26.95;;;;;;;3.79;100.00;102010.00;5075370;28;20041;-82
2023/04/09 00:20:46;;;;;;;66.05;27.77;;;;;;;3.79;100.00;102014.25;5057117;28;20138;-81
2023/04/09 00:23:13;;;;;;;49.08;25.55;;;;;;;3.79;100.00;102014.25;5057839;28;20044;-82
2023/04/09 00:25:39;;;;;;;77.20;29.85;;;;;;;3.81;100.00;102015.22;5074970;28;20040;-81
2023/04/09 00:28:06;;;;;;;57.00;23.85;;;;;;;3.76;100.00;102015.03;5074184;28;20036;-81
2023/04/09 00:30:32;;;;;;;84.43;27.27;;;;;;;3.75;100.00;102014.97;5073618;28;20044;-80
2023/04/09 00:32:59;;;;;;;48.92;25.52;;;;;;;3.70;100.00;102012.16;5073884;28;20042;-80
2023/04/09 00:35:25;;;;;;;70.88;26.67;;;;;;;3.69;100.00;102012.13;5057054;28;20055;-80
2023/04/09 00:37:52;;;;;;;44.65;23.98;;;;;;;3.68;100.00;102005.16;5073671;28;20036;-80
2023/04/09 00:40:18;;;;;;;53.03;24.58;;;;;;;3.66;100.00;102010.28;5056203;28;20051;-81
2023/04/09 00:42:46;;;;;;;64.03;25.08;;;;;;;3.67;100.00;102004.28;5056802;28;20332;-81
2023/04/09 00:45:12;;;;;;;48.53;25.17;;;;;;;3.66;100.00;101999.94;5073620;28;20416;-80
2023/04/09 00:47:38;;;;;;;59.70;26.85;;;;;;;3.66;100.00;102009.41;5073415;28;20490;-80
2023/04/09 00:50:05;;;;;;;48.90;25.90;;;;;;;3.64;100.00;102005.03;5059500;28;20041;-81
2023/04/09 00:52:33;;;;;;;45.25;23.77;;;;;;;3.67;100.00;102006.88;5073210;28;20566;-80
2023/04/09 00:55:01;;;;;;;40.92;22.67;;;;;;;3.69;100.00;102007.84;5057407;28;20122;-81
2023/04/09 00:57:28;;;;;;;47.97;24.00;;;;;;;3.70;100.00;102007.00;5090328;28;20044;-81
2023/04/09 00:59:55;;;;;;;54.83;24.98;;;;;;;3.64;100.00;102005.03;5056707;28;20036;-81
2023/04/09 01:02:21;;;;;;;55.35;24.83;;;;;;;3.62;100.00;102001.53;5072902;28;20470;-81
2023/04/09 01:04:49;;;;;;;42.50;23.08;;;;;;;3.62;100.00;101998.94;5056926;28;20048;-81
2023/04/09 01:07:53;;;;;;;45.40;23.63;;;;;;;3.59;100.00;101998.78;5072897;28;20119;-81
2023/04/09 01:10:29;;;;;;;45.40;23.20;;;;;;;3.57;100.00;101995.28;5073730;28;20052;-81
2023/04/09 01:13:22;;;;;;;36.65;21.63;;;;;;;3.60;100.00;101997.09;5072602;28;20044;-80
2023/04/09 01:15:56;;;;;;;39.20;23.58;;;;;;;3.56;100.00;101995.19;5056844;28;20045;-81
2023/04/09 01:18:31;;;;;;;;;;;;;;;3.49;100.00;101991.47;5056403;28;20044;-81
2023/04/09 01:21:13;;;;;;;;;;;;;;;3.44;100.00;101991.28;5073460;28;19973;-81
2023/04/09 01:24:17;;;;;;;47.08;22.23;;;;;;;3.36;100.00;101999.53;5073079;28;19927;-80
2023/04/09 01:27:02;;;;;;;46.58;23.85;;;;;;;3.23;100.00;102001.59;5073292;28;20430;-80
2023/04/09 01:29:34;;;;;;;56.25;24.55;;;;;;;3.12;100.00;101997.69;5058236;28;20051;-80
2023/04/09 01:32:03;;;;;;;53.60;23.17;;;;;;;3.06;100.00;101987.06;5077698;28;20040;-80
2023/04/09 01:34:30;;;;;;;43.38;24.20;;;;;;;3.07;100.00;101991.41;5057379;28;20616;-80
2023/04/09 01:36:59;;;;;;;46.08;24.10;;;;;;;3.04;100.00;101984.41;5073313;28;20064;-80
2023/04/09 01:39:26;;;;;;;39.75;23.30;;;;;;;3.08;100.00;101985.44;5072924;28;20044;-80
2023/04/09 01:41:55;;;;;;;38.00;20.92;;;;;;;3.16;100.00;101981.47;5056144;28;20425;-81
2023/04/09 01:44:23;;;;;;;41.22;22.20;;;;;;;3.18;100.00;101982.44;5056550;28;20048;-81
2023/04/09 01:46:50;;;;;;;40.50;22.60;;;;;;;3.17;100.00;101980.66;5073020;28;20082;-81
2023/04/09 01:49:18;;;;;;;35.08;20.88;;;;;;;3.17;100.00;101982.34;5074399;28;20044;-80
2023/04/09 01:51:45;;;;;;;36.75;21.95;;;;;;;3.15;100.00;101987.44;5071543;28;20044;-80
2023/04/09 01:54:12;;;;;;;35.45;21.52;;;;;;;3.17;100.00;101991.00;5072639;28;20040;-80
2023/04/09 01:56:47;;;;;;;34.15;20.95;;;;;;;3.15;100.00;101987.44;5072425;28;20044;-81
2023/04/09 01:59:14;;;;;;;37.95;22.20;;;;;;;3.11;100.00;101980.38;5072199;28;20098;-80
2023/04/09 02:02:00;;;;;;;33.20;19.30;;;;;;;3.03;100.00;101981.75;5072879;28;20066;-80
2023/04/09 02:04:41;;;;;;;32.30;20.42;;;;;;;2.87;100.00;101975.91;5055767;28;20528;-80
2023/04/09 02:07:27;;;;;;;34.08;20.92;;;;;;;2.71;100.00;101976.94;5055337;28;20043;-80
2023/04/09 02:09:54;;;;;;;35.40;21.05;;;;;;;2.59;100.00;101974.66;5073572;28;20029;-80
2023/04/09 02:12:21;;;;;;;34.05;21.48;;;;;;;2.54;100.00;101983.03;5072077;28;20042;-81
2023/04/09 02:14:52;;;;;;;31.38;19.77;;;;;;;2.57;100.00;101978.00;5072562;28;20146;-80
2023/04/09 02:17:19;;;;;;;54.95;23.75;;;;;;;2.69;100.00;101972.53;5089289;28;20033;-81
2023/04/09 02:19:47;;;;;;;51.70;25.30;;;;;;;2.79;100.00;101974.66;5071845;28;20052;-80
2023/04/09 02:22:15;;;;;;;35.22;20.80;;;;;;;2.87;100.00;101972.41;5072559;28;20044;-80
2023/04/09 02:24:42;;;;;;;39.05;23.00;;;;;;;2.96;100.00;101975.44;5055460;28;20390;-80
2023/04/09 02:27:09;;;;;;;33.95;21.02;;;;;;;2.98;100.00;101971.19;5072135;28;20032;-81
2023/04/09 02:29:35;;;;;;;40.85;21.75;;;;;;;3.05;100.00;101973.25;5055203;28;20086;-80
2023/04/09 02:32:01;;;;;;;38.67;22.98;;;;;;;3.05;100.00;101968.06;5072031;28;20053;-82
2023/04/09 02:34:28;;;;;;;38.78;23.02;;;;;;;3.10;100.00;101969.16;5072241;28;20039;-80
2023/04/09 02:36:55;;;;;;;39.20;22.13;;;;;;;3.12;100.00;101975.25;5072794;28;20125;-80
2023/04/09 02:39:21;;;;;;;36.53;21.23;;;;;;;3.15;100.00;101974.50;5072136;28;20036;-80
2023/04/09 02:41:48;;;;;;;39.15;21.30;;;;;;;3.14;100.00;101967.56;5072421;28;20123;-80
2023/04/09 02:44:14;;;;;;;34.30;21.38;;;;;;;3.16;100.00;101976.28;5073736;28;20032;-80
2023/04/09 02:46:41;;;;;;;45.45;22.77;;;;;;;3.17;100.00;101979.75;5072328;28;20040;-80
2023/04/09 02:49:08;;;;;;;60.08;22.08;;;;;;;3.12;100.00;101976.97;5093211;28;20040;-80
2023/04/09 02:51:35;;;;;;;43.05;19.58;;;;;;;3.12;100.00;101976.97;5072341;28;20111;-80
2023/04/09 02:54:02;;;;;;;34.55;20.35;;;;;;;3.13;100.00;101977.03;5055457;28;20044;-81
2023/04/09 02:56:29;;;;;;;37.63;19.67;;;;;;;3.17;100.00;101966.81;5071867;28;20044;-80
2023/04/09 02:58:55;;;;;;;44.70;20.67;;;;;;;3.14;100.00;101972.72;5071791;28;20125;-80
2023/04/09 03:01:22;;;;;;;64.93;22.95;;;;;;;3.09;100.00;101969.06;5071549;28;20044;-80
2023/04/09 03:03:48;;;;;;;48.38;21.17;;;;;;;3.02;100.00;101967.06;5074657;28;20048;-80
2023/04/09 03:06:15;;;;;;;100.00;25.58;;;;;;;2.97;100.00;101961.66;5075449;28;20123;-80
2023/04/09 03:08:41;;;;;;;75.90;24.45;;;;;;;2.93;100.00;101960.66;5077486;28;20036;-80
2023/04/09 03:11:08;;;;;;;46.08;22.65;;;;;;;2.94;100.00;101965.00;5075730;28;20094;-80
2023/04/09 03:13:34;;;;;;;45.13;20.80;;;;;;;2.98;100.00;101961.72;5079274;28;20040;-81
2023/04/09 03:16:01;;;;;;;43.50;23.45;;;;;;;3.05;100.00;101959.41;5076815;28;20040;-81
2023/04/09 03:18:27;;;;;;;41.83;20.95;;;;;;;3.12;100.00;101956.28;5059264;28;20050;-80
2023/04/09 03:20:54;;;;;;;45.25;21.45;;;;;;;3.09;100.00;101953.53;5058302;28;20049;-80
2023/04/09 03:23:20;;;;;;;67.18;24.48;;;;;;;3.03;100.00;101951.59;5075026;28;20111;-80
2023/04/09 03:25:47;;;;;;;55.03;22.38;;;;;;;2.98;100.00;101956.56;5058917;28;20048;-81
2023/04/09 03:28:13;;;;;;;53.95;22.88;;;;;;;2.95;100.00;101959.00;5074498;28;20050;-80
2023/04/09 03:30:40;;;;;;;56.00;23.00;;;;;;;2.94;100.00;101952.06;5075259;28;20048;-81
2023/04/09 03:33:06;;;;;;;68.30;23.50;;;;;;;2.90;100.00;101947.59;5075223;28;20413;-80
2023/04/09 03:35:33;;;;;;;78.53;23.67;;;;;;;2.89;100.00;101950.97;5082890;28;20463;-80
2023/04/09 03:37:59;;;;;;;48.13;20.77;;;;;;;2.90;100.00;101949.31;5059306;28;20055;-81
2023/04/09 03:40:26;;;;;;;53.78;22.35;;;;;;;2.89;100.00;101950.09;5075117;28;20489;-80
2023/04/09 03:42:52;;;;;;;69.50;23.33;;;;;;;2.87;100.00;101951.72;5075259;28;20120;-80
2023/04/09 03:45:19;;;;;;;71.28;26.13;;;;;;;2.84;100.00;101946.44;5058465;28;20052;-80
2023/04/09 03:47:46;;;;;;;70.50;23.58;;;;;;;2.78;100.00;101955.69;5074361;28;20566;-80
2023/04/09 03:50:12;;;;;;;68.65;24.70;;;;;;;2.70;100.00;101951.00;5074523;28;20040;-80
2023/04/09 03:52:39;;;;;;;62.67;24.20;;;;;;;2.67;100.00;101950.88;5074567;28;20044;-80
2023/04/09 03:55:06;;;;;;;68.22;23.80;;;;;;;2.65;100.00;101958.56;5074355;28;20032;-80
2023/04/09 03:57:32;;;;;;;46.13;21.35;;;;;;;2.64;100.00;101952.50;5075028;28;20056;-80
2023/04/09 03:59:59;;;;;;;61.30;24.63;;;;;;;2.66;100.00;101952.59;5074379;28;20044;-80
2023/04/09 04:02:26;;;;;;;43.45;22.05;;;;;;;2.64;100.00;101949.91;5074871;28;20045;-80
2023/04/09 04:04:52;;;;;;;51.67;21.92;;;;;;;2.67;100.00;101958.63;5074018;28;20545;-81
2023/04/09 04:07:19;;;;;;;39.97;21.80;;;;;;;2.66;100.00;101955.16;5074006;28;20040;-80
2023/04/09 04:09:45;;;;;;;109.15;27.98;;;;;;;2.59;100.00;101956.56;5074804;28;20044;-80
2023/04/09 04:12:12;;;;;;;60.88;21.35;;;;;;;2.52;100.00;101964.88;5073994;28;20040;-80
2023/04/09 04:14:38;;;;;;;54.03;21.20;;;;;;;2.50;100.00;101965.63;5072961;28;20490;-80
2023/04/09 04:17:05;;;;;;;32.67;20.02;;;;;;;2.48;100.00;101952.66;5058086;28;20392;-80
2023/04/09 04:19:31;;;;;;;42.55;18.92;;;;;;;2.55;100.00;101959.84;5073882;28;20037;-80
2023/04/09 04:21:58;;;;;;;72.55;22.80;;;;;;;2.54;100.00;101965.81;5074075;28;20043;-81
2023/04/09 04:24:24;;;;;;;85.90;22.63;;;;;;;2.39;100.00;101960.84;5073909;28;20047;-80
2023/04/09 04:26:51;;;;;;;58.35;22.50;;;;;;;2.28;100.00;101968.13;5074188;28;20040;-80
2023/04/09 04:29:18;;;;;;;62.25;21.23;;;;;;;2.24;100.00;101967.91;5074259;28;20043;-80
2023/04/09 04:31:44;;;;;;;32.20;19.42;;;;;;;2.30;100.00;101963.03;5062922;28;20056;-79
2023/04/09 04:34:13;;;;;;;60.50;23.10;;;;;;;2.36;100.00;101967.56;5074680;28;20043;-80
2023/04/09 04:36:39;;;;;;;47.13;20.52;;;;;;;2.40;100.00;101972.06;5074045;28;20036;-79
2023/04/09 04:39:06;;;;;;;35.92;20.50;;;;;;;2.41;100.00;101967.00;5057843;28;20037;-81
2023/04/09 04:41:32;;;;;;;114.88;28.73;;;;;;;2.37;100.00;101974.53;5076659;28;20044;-79
2023/04/09 04:43:59;;;;;;;61.90;24.23;;;;;;;2.34;100.00;101980.44;5057815;28;20048;-80
2023/04/09 04:46:25;;;;;;;66.63;24.20;;;;;;;2.33;100.00;101972.63;5073232;28;20040;-79
2023/04/09 04:48:52;;;;;;;67.25;24.40;;;;;;;2.20;100.00;101979.78;5073173;28;20043;-80
2023/04/09 04:51:18;;;;;;;93.63;24.48;;;;;;;2.11;100.00;101976.75;5073030;28;20044;-80
2023/04/09 04:53:45;;;;;;;51.40;23.48;;;;;;;2.08;100.00;101976.63;5073514;28;20043;-80
2023/04/09 04:56:15;;;;;;;71.45;24.88;;;;;;;2.12;100.00;101976.84;5073508;28;20046;-80
2023/04/09 04:58:42;;;;;;;66.55;23.13;;;;;;;2.14;100.00;101977.81;5073520;28;20461;-80
2023/04/09 05:01:09;;;;;;;61.88;25.05;;;;;;;2.19;100.00;101983.19;5073107;28;20036;-80
2023/04/09 05:03:35;;;;;;;85.20;24.85;;;;;;;2.21;100.00;101984.13;5073061;28;20036;-80
2023/04/09 05:06:02;;;;;;;117.00;29.48;;;;;;;2.18;100.00;101986.59;5073150;28;20046;-81
2023/04/09 05:08:29;;;;;;;116.78;26.55;;;;;;;2.07;100.00;101988.66;5056961;28;20037;-80
2023/04/09 05:10:55;;;;;;;73.32;24.45;;;;;;;2.10;100.00;101985.31;5073470;28;20045;-80
2023/04/09 05:13:23;;;;;;;52.03;21.77;;;;;;;2.18;100.00;101990.84;5073888;28;20072;-81
2023/04/09 05:15:50;;;;;;;40.92;21.75;;;;;;;2.23;100.00;101989.38;5073330;28;20131;-80
2023/04/09 05:18:16;;;;;;;78.88;25.15;;;;;;;2.27;100.00;101994.78;5073250;28;20123;-81
2023/04/09 05:20:43;;;;;;;55.55;22.33;;;;;;;2.14;100.00;101998.47;5072776;28;20052;-81
2023/04/09 05:23:11;;;;;;;62.45;23.58;;;;;;;2.14;100.00;101995.88;5056676;28;20040;-80
2023/04/09 05:25:38;;;;;;;53.38;23.02;;;;;;;2.09;100.00;101992.19;5072649;28;20044;-80
2023/04/09 05:28:05;;;;;;;67.82;23.13;;;;;;;2.09;100.00;102001.66;5073573;28;20351;-80
2023/04/09 05:30:31;;;;;;;58.50;22.83;;;;;;;2.12;100.00;102000.09;5056439;28;20051;-81
2023/04/09 05:32:58;;;;;;;44.30;20.98;;;;;;;2.14;100.00;102006.22;5072727;28;20036;-79
2023/04/09 05:35:24;;;;;;;32.40;19.13;;;;;;;2.23;100.00;102000.63;5072709;28;20040;-79
2023/04/09 05:37:51;;;;;;;33.17;20.15;;;;;;;2.37;100.00;101997.78;5056450;28;20093;-80
2023/04/09 05:40:17;;;;;;;60.60;22.13;;;;;;;2.43;100.00;102005.81;5072379;28;20036;-80
2023/04/09 05:42:44;;;;;;;46.67;20.92;;;;;;;2.39;100.00;102001.34;5072695;28;20115;-81
2023/04/09 05:45:11;;;;;;;41.55;19.75;;;;;;;2.48;100.00;102009.50;5072460;28;20039;-81
2023/04/09 05:47:37;;;;;;;34.28;20.10;;;;;;;2.59;100.00;101999.66;5072862;28;20062;-82
2023/04/09 05:50:04;;;;;;;40.75;19.90;;;;;;;2.65;100.00;102008.56;5072760;28;20044;-81
2023/04/09 05:52:31;;;;;;;39.22;19.77;;;;;;;2.76;100.00;102008.16;5072638;28;20052;-80
2023/04/09 05:54:57;;;;;;;35.58;18.25;;;;;;;2.78;100.00;102004.84;5072591;28;20036;-80
2023/04/09 05:57:24;;;;;;;48.28;19.75;;;;;;;2.78;100.00;102001.38;5056153;28;20032;-81
2023/04/09 05:59:50;;;;;;;44.30;19.42;;;;;;;2.84;100.00;102004.22;5072139;28;20364;-80
2023/04/09 06:02:17;;;;;;;33.30;17.85;;;;;;;2.92;100.00;102008.03;5072337;28;20044;-80
2023/04/09 06:04:44;;;;;;;39.85;18.55;;;;;;;2.95;100.00;102000.41;5072308;28;20040;-80
2023/04/09 06:07:10;;;;;;;36.70;17.98;;;;;;;2.98;100.00;102004.81;5055327;28;20043;-80
2023/04/09 06:09:36;;;;;;;37.15;18.23;;;;;;;3.01;100.00;102010.13;5072301;28;20032;-80
2023/04/09 06:12:03;;;;;;;32.55;17.38;;;;;;;2.91;100.00;102011.44;5055380;28;20497;-81
2023/04/09 06:14:31;;;;;;;37.45;18.60;;;;;;;3.01;100.00;102010.13;5072068;28;20098;-80
2023/04/09 06:16:59;;;;;;;32.60;16.75;;;;;;;3.09;100.00;102010.47;5055973;28;20463;-80
2023/04/09 06:19:25;;;;;;;33.45;16.55;;;;;;;3.24;100.00;102008.53;5071798;28;20049;-80
2023/04/09 06:21:52;;;;;;;29.70;16.95;;;;;;;3.38;100.00;102006.56;5055054;28;20486;-81
2023/04/09 06:24:18;;;;;;;35.00;18.30;;;;;;;3.39;100.00;102004.84;5072650;28;20047;-80
2023/04/09 06:26:45;;;;;;;30.70;17.20;;;;;;;3.40;100.00;102001.44;5071878;28;20036;-80
2023/04/09 06:29:12;;;;;;;36.33;17.48;;;;;;;3.48;100.00;102002.63;5072190;28;20127;-80
2023/04/09 06:31:38;;;;;;;30.98;17.20;;;;;;;3.55;100.00;102009.84;5072208;28;20060;-81
2023/04/09 06:34:05;;;;;;;27.52;15.88;;;;;;;3.67;100.00;102008.59;5072253;28;20470;-80
2023/04/09 06:36:33;;;;;;;36.00;19.15;;;;;;;3.74;100.00;102013.19;5055921;28;20049;-80
2023/04/09 06:38:59;;;;;;;27.77;16.63;;;;;;;3.78;100.00;102013.41;5060960;28;20401;-80
2023/04/09 06:41:27;;;;;;;33.70;16.58;;;;;;;3.84;100.00;102019.66;5075815;28;20117;-81
2023/04/09 06:43:54;;;;;;;29.52;14.73;;;;;;;3.92;100.00;102019.09;5075878;28;20447;-80
2023/04/09 06:46:21;;;;;;;32.95;16.48;;;;;;;4.03;100.00;102023.84;5075819;28;20048;-80
2023/04/09 06:48:47;;;;;;;30.45;17.83;;;;;;;4.09;100.00;102021.50;5092237;28;20040;-81
2023/04/09 06:51:14;;;;;;;31.95;17.02;;;;;;;4.19;100.00;102017.59;5058761;28;20071;-81
2023/04/09 06:53:41;;;;;;;31.05;17.48;;;;;;;4.18;100.00;102011.50;5078098;28;20528;-80
2023/04/09 06:56:07;;;;;;;32.75;17.83;;;;;;;4.20;100.00;102016.72;5058648;28;20048;-81
2023/04/09 06:58:34;;;;;;;30.58;17.13;;;;;;;4.28;100.00;102015.34;5075649;28;20047;-80
2023/04/09 07:01:01;;;;;;;36.20;18.05;;;;;;;4.37;100.00;102013.09;5075618;28;20509;-80
2023/04/09 07:03:27;;;;;;;30.92;17.30;;;;;;;4.46;100.00;102017.78;5076583;28;20037;-81
2023/04/09 07:05:55;;;;;;;35.83;19.25;;;;;;;4.61;100.00;102018.31;5075333;28;20078;-81
2023/04/09 07:08:22;;;;;;;43.88;22.73;;;;;;;4.76;100.00;102020.63;5076639;28;20037;-81
2023/04/09 07:10:49;;;;;;;31.67;16.92;;;;;;;4.84;100.00;102020.91;5059125;28;20090;-81
2023/04/09 07:13:15;;;;;;;32.25;17.48;;;;;;;4.84;100.00;102020.00;5074991;28;20043;-81
2023/04/09 07:15:42;;;;;;;34.40;17.73;;;;;;;4.93;100.00;102012.56;5075163;28;20032;-81
2023/04/09 07:18:08;;;;;;;33.08;17.90;;;;;;;5.06;100.00;102012.19;5074625;28;20047;-81
2023/04/09 07:20:34;;;;;;;33.15;18.63;;;;;;;5.16;100.00;102023.75;5058398;28;20059;-81
2023/04/09 07:23:01;;;;;;;32.05;17.83;;;;;;;5.24;100.00;102018.84;5059174;28;20067;-81
2023/04/09 07:25:28;;;;;;;34.10;18.23;;;;;;;5.23;100.00;102019.69;5074999;28;20490;-81
2023/04/09 07:27:54;;;;;;;37.90;19.20;;;;;;;5.19;100.00;102017.78;5058591;28;20047;-81
2023/04/09 07:30:21;;;;;;;33.90;19.35;;;;;;;5.22;100.00;102023.97;5079134;28;20403;-82
2023/04/09 07:32:47;;;;;;;34.67;18.45;;;;;;;5.26;100.00;102023.25;5059269;28;20048;-82
2023/04/09 07:35:17;;;;;;;33.78;19.42;;;;;;;5.31;100.00;102028.63;5075186;28;20170;-82
2023/04/09 07:37:44;;;;;;;33.03;18.65;;;;;;;5.46;100.00;102026.56;5074963;28;20040;-81
2023/04/09 07:40:10;;;;;;;39.15;19.75;;;;;;;5.65;100.00;102016.78;5075553;28;20048;-80
2023/04/09 07:42:38;;;;;;;39.65;22.20;;;;;;;5.81;100.00;102023.34;5057156;28;20054;-80
2023/04/09 07:45:06;;;;;;;38.10;22.55;;;;;;;5.89;100.00;102027.13;5074693;28;20044;-80
2023/04/09 07:47:34;;;;;;;42.70;25.13;;;;;;;5.97;100.00;102030.81;5074371;28;20078;-81
2023/04/09 07:50:00;;;;;;;37.50;22.30;;;;;;;6.07;100.00;102024.22;5077713;28;20406;-80
2023/04/09 07:52:27;;;;;;;43.30;22.95;;;;;;;6.14;100.00;102014.94;5076307;28;20096;-80
2023/04/09 07:54:56;;;;;;;41.95;23.17;;;;;;;6.16;100.00;102018.44;5076413;28;20098;-82
2023/04/09 07:57:22;;;;;;;40.47;22.33;;;;;;;6.20;100.00;102019.44;5079262;28;20044;-81
2023/04/09 07:59:49;;;;;;;42.28;22.65;;;;;;;6.31;100.00;102019.75;5061308;28;20136;-80
2023/04/09 08:02:16;;;;;;;40.03;22.63;;;;;;;6.49;100.00;102022.03;5059638;28;20049;-80
2023/04/09 08:04:43;;;;;;;53.45;26.90;;;;;;;6.57;100.00;102017.91;5074530;28;20115;-81
2023/04/09 08:07:10;;;;;;;48.50;25.15;;;;;;;6.58;100.00;102017.09;5074656;28;20066;-81
2023/04/09 08:09:36;;;;;;;43.47;24.42;;;;;;;6.74;100.00;102021.91;5074246;28;20040;-81
2023/04/09 08:12:03;;;;;;;43.55;25.15;;;;;;;6.86;100.00;102013.56;5074790;28;20063;-80
2023/04/09 08:14:30;;;;;;;44.35;25.33;;;;;;;7.03;100.00;102024.47;5091163;28;20040;-81
2023/04/09 08:16:57;;;;;;;45.72;25.40;;;;;;;7.19;100.00;102017.06;5074397;28;20041;-80
2023/04/09 08:19:24;;;;;;;49.53;26.08;;;;;;;7.20;100.00;102019.72;5074058;28;20119;-81
2023/04/09 08:21:51;;;;;;;41.30;24.15;;;;;;;7.01;100.00;102022.66;5074182;28;20056;-81
2023/04/09 08:24:18;;;;;;;44.08;25.92;;;;;;;7.04;100.00;102018.41;5075737;28;20044;-80
2023/04/09 08:26:44;;;;;;;48.30;26.73;;;;;;;7.05;100.00;102020.19;5073824;28;20048;-81
2023/04/09 08:29:13;;;;;;;45.20;26.40;;;;;;;6.98;100.00;102023.44;5074202;28;20044;-81
2023/04/09 08:31:44;;;;;;;43.08;24.00;;;;;;;7.12;100.00;102026.44;5075486;28;20085;-80
2023/04/09 08:34:11;;;;;;;43.95;23.75;;;;;;;7.02;100.00;102017.47;5075838;28;20047;-79
2023/04/09 08:36:38;;;;;;;39.33;24.85;;;;;;;7.12;100.00;102023.84;5058225;28;20078;-81
2023/04/09 08:39:04;;;;;;;42.75;27.75;;;;;;;6.99;100.00;102022.63;5073795;28;20040;-80
2023/04/09 08:41:31;;;;;;;41.17;22.45;;;;;;;7.10;100.00;102025.50;5073842;28;20037;-80
2023/04/09 08:43:58;;;;;;;33.80;20.40;;;;;;;7.11;100.00;102019.47;5073684;28;20037;-80
2023/04/09 08:46:26;;;;;;;36.55;22.63;;;;;;;7.18;100.00;102021.38;5073423;28;20056;-80
2023/04/09 08:48:53;;;;;;;36.03;21.75;;;;;;;7.14;100.00;102018.66;5089688;28;20028;-81
2023/04/09 08:51:23;;;;;;;31.23;18.63;;;;;;;7.37;100.00;102024.50;5056750;28;20036;-80
2023/04/09 08:54:00;;;;;;;30.77;19.75;;;;;;;7.60;100.00;102022.47;5056473;28;20040;-80
2023/04/09 08:56:26;;;;;;;29.45;17.73;;;;;;;7.68;100.00;102023.56;5073420;28;20467;-81
2023/04/09 08:58:55;;;;;;;28.55;16.88;;;;;;;7.78;99.08;102022.03;5073968;28;20047;-81
2023/04/09 09:01:39;;;;;;;29.23;18.23;;;;;;;7.89;100.00;102023.19;5073012;28;20402;-81
2023/04/09 09:04:09;;;;;;;28.17;17.75;;;;;;;8.04;98.51;102019.19;5073054;28;20041;-81
2023/04/09 09:06:41;;;;;;;34.20;20.73;;;;;;;8.16;96.74;102022.09;5072996;28;20048;-81
2023/04/09 09:09:17;;;;;;;34.55;20.73;;;;;;;8.20;96.40;102015.19;5072735;28;20032;-81
2023/04/09 09:11:49;;;;;;;38.40;22.55;;;;;;;8.20;95.63;102020.41;5090075;28;20040;-81
2023/04/09 09:14:18;;;;;;;35.72;21.88;;;;;;;8.13;95.27;102016.78;5089782;28;20036;-81
2023/04/09 09:17:04;;;;;;;38.00;21.77;;;;;;;8.11;95.30;102019.38;5056180;28;20045;-81
2023/04/09 09:19:34;;;;;;;40.08;22.92;;;;;;;8.20;96.23;102018.72;5072845;28;20370;-81
2023/04/09 09:22:03;;;;;;;39.90;23.60;;;;;;;8.34;94.98;102021.59;5056335;28;20048;-81
2023/04/09 09:24:32;;;;;;;44.55;26.15;;;;;;;8.49;93.52;102021.13;5073685;28;20071;-80
2023/04/09 09:27:00;;;;;;;42.92;25.15;;;;;;;8.65;93.21;102016.22;5072033;28;20122;-80
2023/04/09 09:29:28;;;;;;;37.78;23.60;;;;;;;8.88;93.29;102007.13;5072738;28;20029;-81
2023/04/09 09:31:56;;;;;;;39.03;24.00;;;;;;;8.97;92.39;102006.44;5089106;28;20041;-80
2023/04/09 09:34:24;;;;;;;42.75;25.65;;;;;;;8.96;90.67;102009.00;5089601;28;20052;-81
2023/04/09 09:36:51;;;;;;;41.53;26.25;;;;;;;8.86;90.87;102010.56;5072369;28;20043;-81
2023/04/09 09:39:17;;;;;;;41.42;24.33;;;;;;;8.82;90.87;102016.56;5072277;28;20048;-80
2023/04/09 09:41:47;;;;;;;40.60;25.30;;;;;;;8.90;90.87;102010.66;5056244;28;20092;-80
2023/04/09 09:44:32;;;;;;;40.58;24.30;;;;;;;8.94;90.46;102017.69;5072127;28;20040;-80
2023/04/09 09:46:59;;;;;;;38.47;24.95;;;;;;;8.98;91.19;102009.91;5072366;28;20056;-80
2023/04/09 09:49:26;;;;;;;42.65;27.77;;;;;;;9.03;90.30;102008.28;5089151;28;20044;-80
2023/04/09 09:51:56;;;;;;;43.67;26.67;;;;;;;9.23;90.29;102012.16;5056407;28;20379;-80
2023/04/09 09:54:25;;;;;;;39.95;25.55;;;;;;;9.54;89.16;102017.94;5072472;28;20199;-81
2023/04/09 09:56:55;;;;;;;39.42;26.33;;;;;;;9.76;87.52;102008.72;5072469;28;20048;-82
2023/04/09 09:59:26;;;;;;;47.38;29.88;;;;;;;9.81;85.17;102013.13;5072285;28;20037;-80
2023/04/09 10:02:06;;;;;;;42.17;29.38;;;;;;;9.88;86.01;102010.63;5055249;28;20083;-80
2023/04/09 10:04:36;;;;;;;46.67;31.52;;;;;;;9.88;85.35;102009.75;5072689;28;20036;-80
2023/04/09 10:07:07;;;;;;;45.05;30.20;;;;;;;9.94;85.49;102004.59;5072076;28;20076;-81
2023/04/09 10:09:35;;;;;;;44.03;29.42;;;;;;;10.12;83.38;102006.63;5072666;28;20109;-81
2023/04/09 10:12:06;;;;;;;46.72;31.70;;;;;;;10.27;82.91;101995.47;5073570;28;20115;-81
2023/04/09 10:14:34;;;;;;;48.78;30.27;;;;;;;10.69;82.07;101996.97;5076445;28;20036;-81
2023/04/09 10:17:02;;;;;;;43.92;29.80;;;;;;;10.83;79.31;101991.84;5076664;28;20040;-80
2023/04/09 10:19:30;;;;;;;44.10;29.42;;;;;;;10.99;78.76;101990.31;5076547;28;20082;-80
2023/04/09 10:22:16;;;;;;;45.55;30.52;;;;;;;11.09;79.55;101988.66;5076474;28;20068;-79
2023/04/09 10:24:43;;;;;;;42.70;28.67;;;;;;;11.41;79.00;101985.47;5077334;28;20045;-79
2023/04/09 10:27:15;;;;;;;43.42;31.27;;;;;;;11.61;77.30;101977.75;5063285;28;20049;-79
2023/04/09 10:29:50;;;;;;;51.75;31.65;;;;;;;11.29;77.28;101982.72;5076585;28;20032;-80
2023/04/09 10:32:26;;;;;;;51.20;34.15;;;;;;;11.00;78.34;101978.06;5062752;28;20037;-81
2023/04/09 10:34:58;;;;;;;45.95;32.45;;;;;;;11.02;79.06;101976.38;5092667;28;20051;-80
2023/04/09 10:37:27;;;;;;;50.80;32.40;;;;;;;11.53;77.58;101971.59;5076884;28;20071;-82
2023/04/09 10:39:55;;;;;;;50.38;32.65;;;;;;;11.75;74.78;101968.25;5075609;28;20407;-80
2023/04/09 10:42:37;;;;;;;43.17;31.42;;;;;;;11.92;74.94;101959.63;5059981;28;20055;-81
2023/04/09 10:45:10;;;;;;;54.13;33.53;;;;;;;12.12;73.71;101961.53;5075905;28;20406;-81
2023/04/09 10:47:40;;;;;;;46.28;30.83;;;;;;;11.90;71.88;101956.09;5059212;28;20506;-81
2023/04/09 10:50:29;;;;;;;49.38;31.15;;;;;;;11.60;72.50;101955.03;5075769;28;20039;-81
2023/04/09 10:52:59;;;;;;;45.80;29.00;;;;;;;11.49;74.86;101957.56;5076001;28;20123;-82
2023/04/09 10:55:43;;;;;;;46.88;28.63;;;;;;;11.89;71.34;101954.38;5059475;28;20102;-80
2023/04/09 10:58:11;;;;;;;40.92;27.83;;;;;;;11.64;71.58;101963.81;5076409;28;20068;-80
2023/04/09 11:00:41;;;;;;;41.60;27.10;;;;;;;11.29;72.49;101960.03;5092455;28;20037;-81
2023/04/09 11:03:29;;;;;;;40.58;25.30;;;;;;;11.01;73.36;101965.00;5075857;28;20044;-81
2023/04/09 11:06:04;;;;;;;39.67;24.05;;;;;;;10.87;74.23;101964.88;5092431;28;20037;-80
2023/04/09 11:08:33;;;;;;;36.55;22.70;;;;;;;10.61;75.14;101964.53;5077030;28;20040;-81
2023/04/09 11:11:00;;;;;;;35.97;21.80;;;;;;;10.33;77.17;101955.44;5075738;28;20028;-81
2023/04/09 11:13:29;;;;;;;30.92;20.77;;;;;;;10.12;78.17;101961.25;5092774;28;20086;-81
2023/04/09 11:15:56;;;;;;;31.83;20.90;;;;;;;9.95;79.14;101959.28;5075740;28;20098;-81